createdAt,value
2022-10-13T00:00:57.147Z,1.58
2022-10-13T00:03:25.164Z,1.13
2022-10-13T00:05:53.244Z,1.50
2022-10-13T00:08:24.450Z,2.67
2022-10-13T00:10:52.733Z,0.87
2022-10-13T00:13:21.619Z,1.00
2022-10-13T00:15:50.234Z,0.70
2022-10-13T00:18:19.785Z,1.57
2022-10-13T00:20:50.120Z,1.37
2022-10-13T00:23:19.251Z,2.77
2022-10-13T00:25:48.989Z,2.90
2022-10-13T00:28:19.589Z,1.17
2022-10-13T00:30:48.712Z,1.47
2022-10-13T00:33:16.739Z,3.55
2022-10-13T00:35:48.608Z,1.70
2022-10-13T00:38:17.795Z,0.77
2022-10-13T00:40:47.455Z,2.00
2022-10-13T00:43:18.746Z,1.77
2022-10-13T00:45:49.884Z,3.22
2022-10-13T00:48:19.856Z,1.45
2022-10-13T00:50:52.028Z,1.55
2022-10-13T00:53:25.576Z,2.10
2022-10-13T00:55:54.452Z,1.60
2022-10-13T00:58:24.321Z,2.38
2022-10-13T01:00:54.253Z,0.77
2022-10-13T01:03:23.397Z,1.00
2022-10-13T01:05:56.629Z,2.17
2022-10-13T01:08:26.974Z,1.67
2022-10-13T01:11:05.207Z,6.43
2022-10-13T01:13:39.435Z,0.88
2022-10-13T01:16:14.203Z,2.85
2022-10-13T01:18:53.542Z,4.13
2022-10-13T01:21:28.781Z,1.88
2022-10-13T01:24:21.821Z,1.80
2022-10-13T01:27:15.274Z,2.38
2022-10-13T01:30:10.565Z,2.80
2022-10-13T01:33:00.655Z,2.10
2022-10-13T01:35:37.934Z,2.55
2022-10-13T01:38:10.289Z,3.85
2022-10-13T01:40:45.945Z,1.15
2022-10-13T01:43:19.217Z,1.33
2022-10-13T01:45:55.330Z,2.25
2022-10-13T01:48:24.135Z,0.95
2022-10-13T01:50:53.279Z,3.42
2022-10-13T01:53:22.525Z,3.03
2022-10-13T01:55:52.418Z,1.35
2022-10-13T01:58:20.426Z,3.20
2022-10-13T02:01:01.357Z,1.98
2022-10-13T02:03:43.965Z,2.25
2022-10-13T02:06:22.052Z,0.95
2022-10-13T02:08:57.916Z,5.90
2022-10-13T02:11:26.138Z,1.70
2022-10-13T02:14:01.103Z,4.38
2022-10-13T02:16:36.156Z,2.70
2022-10-13T02:19:06.579Z,1.85
2022-10-13T02:21:35.259Z,1.60
2022-10-13T02:24:03.972Z,1.92
2022-10-13T02:26:32.745Z,1.60
2022-10-13T02:29:01.501Z,2.97
2022-10-13T02:31:30.784Z,0.70
2022-10-13T02:33:58.818Z,1.55
2022-10-13T02:36:26.885Z,0.93
2022-10-13T02:38:54.782Z,5.25
2022-10-13T02:41:22.781Z,2.17
2022-10-13T02:43:50.732Z,1.58
2022-10-13T02:46:18.729Z,1.35
2022-10-13T02:48:48.077Z,31.90
2022-10-13T02:51:16.173Z,4.20
2022-10-13T02:53:44.285Z,4.53
2022-10-13T02:56:12.360Z,2.72
2022-10-13T02:58:40.430Z,2.50
2022-10-13T03:01:09.747Z,9.82
2022-10-13T03:03:38.204Z,2.53
2022-10-13T03:06:08.786Z,3.25
2022-10-13T03:08:37.161Z,3.35
2022-10-13T03:11:05.197Z,2.08
2022-10-13T03:13:33.557Z,2.08
2022-10-13T03:16:01.504Z,2.75
2022-10-13T03:18:29.523Z,3.72
2022-10-13T03:20:59.226Z,2.92
2022-10-13T03:23:29.114Z,3.10
2022-10-13T03:25:57.185Z,3.85
2022-10-13T03:28:25.292Z,3.35
2022-10-13T03:31:01.798Z,2.50
2022-10-13T03:33:29.981Z,12.30
2022-10-13T03:36:00.097Z,2.45
2022-10-13T03:38:30.046Z,3.17
2022-10-13T03:40:58.024Z,1.15
2022-10-13T03:43:26.157Z,0.95
2022-10-13T03:45:57.742Z,2.15
2022-10-13T03:48:25.987Z,1.45
2022-10-13T03:50:54.140Z,0.70
2022-10-13T03:53:22.667Z,3.42
2022-10-13T03:55:53.352Z,1.88
2022-10-13T03:58:22.413Z,0.75
2022-10-13T04:00:51.201Z,2.58
2022-10-13T04:03:19.629Z,1.67
2022-10-13T04:05:47.920Z,2.25
2022-10-13T04:08:16.108Z,0.80
2022-10-13T04:10:44.077Z,0.75
2022-10-13T04:13:13.469Z,1.90
2022-10-13T04:15:41.843Z,0.93
2022-10-13T04:18:10.146Z,1.55
2022-10-13T04:20:39.921Z,1.92
2022-10-13T04:23:08.392Z,0.90
2022-10-13T04:25:37.239Z,1.80
2022-10-13T04:28:05.776Z,1.50
2022-10-13T04:30:36.100Z,2.40
2022-10-13T04:33:04.330Z,2.15
2022-10-13T04:35:32.461Z,0.82
2022-10-13T04:38:00.529Z,1.67
2022-10-13T04:40:28.495Z,1.13
2022-10-13T04:42:56.521Z,5.20
2022-10-13T04:45:24.489Z,2.35
2022-10-13T04:47:53.818Z,8.00
2022-10-13T04:50:21.912Z,1.25
2022-10-13T04:52:49.850Z,1.58
2022-10-13T04:55:18.042Z,1.55
2022-10-13T04:57:46.037Z,3.03
2022-10-13T05:00:14.926Z,2.65
2022-10-13T05:02:42.936Z,9.32
2022-10-13T05:05:12.680Z,2.25
2022-10-13T05:07:40.675Z,2.42
2022-10-13T05:10:09.133Z,3.42
2022-10-13T05:12:37.328Z,2.70
2022-10-13T05:15:06.223Z,2.60
2022-10-13T05:17:35.500Z,2.45
2022-10-13T05:20:06.193Z,3.78
2022-10-13T05:22:35.514Z,5.75
2022-10-13T05:25:03.600Z,1.17
2022-10-13T05:27:31.589Z,1.17
2022-10-13T05:29:59.533Z,4.13
2022-10-13T05:32:27.507Z,4.10
2022-10-13T05:34:55.440Z,1.37
2022-10-13T05:37:23.544Z,1.23
2022-10-13T05:39:53.070Z,1.63
2022-10-13T05:42:21.449Z,1.13
2022-10-13T05:44:49.830Z,1.45
2022-10-13T05:47:17.867Z,1.35
2022-10-13T05:49:45.928Z,0.73
2022-10-13T05:52:14.201Z,0.75
2022-10-13T05:54:46.797Z,3.45
2022-10-13T05:57:19.558Z,1.30
2022-10-13T05:59:52.267Z,1.50
2022-10-13T06:02:23.283Z,1.77
2022-10-13T06:04:53.966Z,0.90
2022-10-13T06:07:22.156Z,2.80
2022-10-13T06:09:50.847Z,1.35
2022-10-13T06:12:20.516Z,1.75
2022-10-13T06:14:48.959Z,3.08
2022-10-13T06:17:16.949Z,1.08
2022-10-13T06:19:46.075Z,0.80
2022-10-13T06:22:14.113Z,5.18
2022-10-13T06:24:42.085Z,0.82
2022-10-13T06:27:10.353Z,1.63
2022-10-13T06:29:39.858Z,3.05
2022-10-13T06:32:07.911Z,1.10
2022-10-13T06:34:35.931Z,1.75
2022-10-13T06:37:03.914Z,1.13
2022-10-13T06:39:31.974Z,2.83
2022-10-13T06:41:59.978Z,2.20
2022-10-13T06:44:27.953Z,2.35
2022-10-13T06:46:57.386Z,1.55
2022-10-13T06:49:25.877Z,1.25
2022-10-13T06:51:53.969Z,3.47
2022-10-13T06:54:22.260Z,1.52
2022-10-13T06:56:51.242Z,1.85
2022-10-13T06:59:19.237Z,1.15
2022-10-13T07:01:48.622Z,1.63
2022-10-13T07:04:18.068Z,4.27
2022-10-13T07:06:46.155Z,2.57
2022-10-13T07:09:14.261Z,2.57
2022-10-13T07:11:45.270Z,3.30
2022-10-13T07:14:13.540Z,2.07
2022-10-13T07:16:44.787Z,2.30
2022-10-13T07:19:12.711Z,2.30
2022-10-13T07:21:42.024Z,2.73
2022-10-13T07:24:12.305Z,2.57
2022-10-13T07:26:40.446Z,2.00
2022-10-13T07:29:08.956Z,1.17
2022-10-13T07:31:36.940Z,1.10
2022-10-13T07:34:10.372Z,0.80
2022-10-13T07:36:40.708Z,1.63
2022-10-13T07:39:10.866Z,1.17
2022-10-13T07:41:38.862Z,2.13
2022-10-13T07:44:06.871Z,2.13
2022-10-13T07:46:35.114Z,2.93
2022-10-13T07:49:03.190Z,3.33
2022-10-13T07:51:31.152Z,1.60
2022-10-13T07:53:59.142Z,1.53
2022-10-13T07:56:28.516Z,1.70
2022-10-13T07:58:57.596Z,1.73
2022-10-13T08:01:25.821Z,2.37
2022-10-13T08:03:56.772Z,1.80
2022-10-13T08:06:24.929Z,2.33
2022-10-13T08:08:53.603Z,4.97
2022-10-13T08:11:22.092Z,1.80
2022-10-13T08:13:53.014Z,2.93
2022-10-13T08:16:21.759Z,1.63
2022-10-13T08:18:50.485Z,1.40
2022-10-13T08:24:08.765Z,2.23
2022-10-13T08:26:36.749Z,1.43
2022-10-13T08:29:23.473Z,1.77
2022-10-13T08:31:52.550Z,2.70
2022-10-13T08:34:21.265Z,2.10
2022-10-13T08:36:54.922Z,2.10
2022-10-13T08:39:23.809Z,1.30
2022-10-13T08:41:52.319Z,2.90
2022-10-13T08:45:02.748Z,1.97
2022-10-13T08:47:25.505Z,2.63
2022-10-13T08:49:59.103Z,2.20
2022-10-13T08:52:30.610Z,2.10
2022-10-13T08:55:01.439Z,2.20
2022-10-13T08:57:29.444Z,2.53
2022-10-13T08:59:58.821Z,3.53
2022-10-13T09:02:32.411Z,3.10
2022-10-13T09:05:03.381Z,2.60
2022-10-13T09:07:36.216Z,4.43
2022-10-13T09:10:05.476Z,2.70
2022-10-13T09:12:34.016Z,4.33
2022-10-13T09:15:06.011Z,3.55
2022-10-13T09:17:35.772Z,4.20
2022-10-13T09:20:07.735Z,3.85
2022-10-13T09:22:37.169Z,5.43
2022-10-13T09:25:21.283Z,4.55
2022-10-13T09:27:50.990Z,11.30
2022-10-13T09:30:31.150Z,5.47
2022-10-13T09:33:27.026Z,6.75
2022-10-13T09:36:14.459Z,7.50
2022-10-13T09:39:04.451Z,11.75
2022-10-13T09:41:32.872Z,17.33
2022-10-13T09:44:10.834Z,17.85
2022-10-13T09:46:49.544Z,20.05
2022-10-13T09:49:35.641Z,17.83
2022-10-13T09:52:05.991Z,21.60
2022-10-13T09:54:46.683Z,21.67
2022-10-13T09:57:26.510Z,18.17
2022-10-13T09:59:59.940Z,25.05
2022-10-13T10:02:36.839Z,14.65
2022-10-13T10:05:15.112Z,16.10
2022-10-13T10:07:43.460Z,15.05
2022-10-13T10:10:26.716Z,15.32
2022-10-13T10:12:55.241Z,15.35
2022-10-13T10:15:31.318Z,16.05
2022-10-13T10:18:05.338Z,15.13
2022-10-13T10:20:59.981Z,15.60
2022-10-13T10:23:40.684Z,15.90
2022-10-13T10:26:18.179Z,16.08
2022-10-13T10:29:14.556Z,16.08
2022-10-13T10:32:08.866Z,16.02
2022-10-13T10:34:43.576Z,16.45
2022-10-13T10:37:21.440Z,16.40
2022-10-13T10:40:03.643Z,17.38
2022-10-13T10:42:59.566Z,17.63
2022-10-13T10:45:29.537Z,17.88
2022-10-13T10:48:01.515Z,16.75
2022-10-13T10:50:32.067Z,16.17
2022-10-13T10:53:06.120Z,16.92
2022-10-13T10:55:41.003Z,16.75
2022-10-13T10:58:23.563Z,23.02
2022-10-13T11:00:59.898Z,24.20
2022-10-13T11:03:41.328Z,29.70
2022-10-13T11:06:34.201Z,28.17
2022-10-13T11:09:03.013Z,22.77
2022-10-13T11:11:44.251Z,28.98
2022-10-13T11:14:32.284Z,27.35
2022-10-13T11:17:11.007Z,25.67
2022-10-13T11:19:40.026Z,28.52
2022-10-13T11:22:22.130Z,25.60
2022-10-13T11:24:59.717Z,28.85
2022-10-13T11:27:39.916Z,25.63
2022-10-13T11:30:50.329Z,20.08
2022-10-13T11:33:36.427Z,21.98
2022-10-13T11:36:42.538Z,21.58
2022-10-13T11:39:41.319Z,23.30
2022-10-13T11:42:27.463Z,25.30
2022-10-13T11:44:57.984Z,23.20
2022-10-13T11:47:54.847Z,22.20
2022-10-13T11:50:29.920Z,20.92
2022-10-13T11:53:08.041Z,22.20
2022-10-13T11:55:45.028Z,23.63
2022-10-13T11:58:17.513Z,25.35
2022-10-13T12:00:59.132Z,26.02
2022-10-13T12:03:30.837Z,25.05
2022-10-13T12:06:05.575Z,26.02
2022-10-13T12:08:36.080Z,26.65
2022-10-13T12:11:08.387Z,25.95
2022-10-13T12:13:37.958Z,23.38
2022-10-13T12:16:08.483Z,22.95
2022-10-13T12:18:39.220Z,27.45
2022-10-13T12:21:12.792Z,24.45
2022-10-13T12:23:41.453Z,25.15
2022-10-13T12:26:14.972Z,27.55
2022-10-13T12:28:50.297Z,27.58
2022-10-13T12:31:22.040Z,25.92
2022-10-13T12:33:55.828Z,21.73
2022-10-13T12:36:30.276Z,23.17
2022-10-13T12:39:01.973Z,22.75
2022-10-13T12:41:32.974Z,22.20
2022-10-13T12:44:04.033Z,25.83
2022-10-13T12:46:38.757Z,22.10
2022-10-13T12:49:08.795Z,23.90
2022-10-13T12:51:39.461Z,26.00
2022-10-13T12:54:09.539Z,25.15
2022-10-13T12:56:37.662Z,25.30
2022-10-13T12:59:05.738Z,22.90
2022-10-13T13:01:35.141Z,23.35
2022-10-13T13:04:17.703Z,24.95
2022-10-13T13:06:56.503Z,25.08
2022-10-13T13:09:29.545Z,23.50
2022-10-13T13:12:20.928Z,19.63
2022-10-13T13:14:49.811Z,24.65
2022-10-13T13:17:52.800Z,23.27
2022-10-13T13:20:25.997Z,25.10
2022-10-13T13:22:55.666Z,25.17
2022-10-13T13:25:24.042Z,24.13
2022-10-13T13:27:52.913Z,47.80
2022-10-13T13:30:22.537Z,24.08
2022-10-13T13:32:50.684Z,22.73
2022-10-13T13:35:19.003Z,21.52
2022-10-13T13:37:52.478Z,21.10
2022-10-13T13:40:23.691Z,26.70
2022-10-13T13:42:51.939Z,21.08
2022-10-13T13:45:21.715Z,22.10
2022-10-13T13:47:49.923Z,23.60
2022-10-13T13:50:20.441Z,25.15
2022-10-13T13:52:48.566Z,23.55
2022-10-13T13:55:16.892Z,24.50
2022-10-13T13:57:46.949Z,23.15
2022-10-13T14:00:17.392Z,22.92
2022-10-13T14:02:46.131Z,26.00
2022-10-13T14:05:14.555Z,25.83
2022-10-13T14:07:42.678Z,22.92
2022-10-13T14:10:11.630Z,24.50
2022-10-13T14:12:39.846Z,20.33
2022-10-13T14:15:10.546Z,36.90
2022-10-13T14:17:38.629Z,23.60
2022-10-13T14:20:07.705Z,28.75
2022-10-13T14:22:39.141Z,22.45
2022-10-13T14:25:08.347Z,23.48
2022-10-13T14:27:37.053Z,26.33
2022-10-13T14:30:05.437Z,28.42
2022-10-13T14:32:35.260Z,25.40
2022-10-13T14:35:03.594Z,23.58
2022-10-13T14:37:33.635Z,23.30
2022-10-13T14:40:02.058Z,27.02
2022-10-13T14:42:30.027Z,24.42
2022-10-13T14:44:57.978Z,22.33
2022-10-13T14:47:26.002Z,18.30
2022-10-13T14:49:57.744Z,19.13
2022-10-13T14:52:25.699Z,19.05
2022-10-13T14:54:53.678Z,17.90
2022-10-13T14:57:22.068Z,18.27
2022-10-13T14:59:50.175Z,18.33
2022-10-13T15:02:18.365Z,19.10
2022-10-13T15:04:46.309Z,16.90
2022-10-13T15:07:15.765Z,18.80
2022-10-13T15:09:52.819Z,17.45
2022-10-13T15:12:21.948Z,18.83
2022-10-13T15:14:50.145Z,19.40
2022-10-13T15:17:18.152Z,19.52
2022-10-13T15:19:46.253Z,19.42
2022-10-13T15:22:16.520Z,19.13
2022-10-13T15:24:48.479Z,18.92
2022-10-13T15:27:23.390Z,18.73
2022-10-13T15:29:51.471Z,25.25
2022-10-13T15:32:21.075Z,22.65
2022-10-13T15:34:49.341Z,23.35
2022-10-13T15:37:18.724Z,18.42
2022-10-13T15:39:46.702Z,18.88
2022-10-13T15:42:14.676Z,17.60
2022-10-13T15:45:09.216Z,17.05
2022-10-13T15:47:30.827Z,17.77
2022-10-13T15:49:58.786Z,16.70
2022-10-13T15:52:33.732Z,17.95
2022-10-13T15:55:02.908Z,17.75
2022-10-13T15:57:31.980Z,16.90
2022-10-13T15:59:59.928Z,17.92
2022-10-13T16:02:28.002Z,18.42
2022-10-13T16:04:56.849Z,18.20
2022-10-13T16:07:24.882Z,18.25
2022-10-13T16:09:54.244Z,19.05
2022-10-13T16:12:24.254Z,19.10
2022-10-13T16:14:52.401Z,16.77
2022-10-13T16:17:20.882Z,17.17
2022-10-13T16:19:49.044Z,17.02
2022-10-13T16:22:17.122Z,16.92
2022-10-13T16:24:45.192Z,16.42
2022-10-13T16:27:14.489Z,17.80
2022-10-13T16:29:42.468Z,17.77
2022-10-13T16:32:10.714Z,18.02
2022-10-13T16:34:38.745Z,18.30
2022-10-13T16:37:06.947Z,30.17
2022-10-13T16:39:37.527Z,17.13
2022-10-13T16:42:07.993Z,15.80
2022-10-13T16:44:37.410Z,15.40
2022-10-13T16:47:06.457Z,14.98
2022-10-13T16:49:35.029Z,15.23
2022-10-13T16:52:03.185Z,14.40
2022-10-13T16:54:32.797Z,14.85
2022-10-13T16:57:00.859Z,14.60
2022-10-13T16:59:29.103Z,13.02
2022-10-13T17:01:59.352Z,13.30
2022-10-13T17:04:27.612Z,14.73
2022-10-13T17:06:55.711Z,13.00
2022-10-13T17:09:23.619Z,11.85
2022-10-13T17:11:51.624Z,12.77
2022-10-13T17:14:20.221Z,14.02
2022-10-13T17:16:48.227Z,11.73
2022-10-13T17:19:17.502Z,12.27
2022-10-13T17:21:45.656Z,12.45
2022-10-13T17:24:13.847Z,11.00
2022-10-13T17:26:41.858Z,10.15
2022-10-13T17:29:09.815Z,11.25
2022-10-13T17:31:37.787Z,10.68
2022-10-13T17:34:06.271Z,10.45
2022-10-13T17:36:36.251Z,9.63
2022-10-13T17:39:06.861Z,8.98
2022-10-13T17:41:35.383Z,8.52
2022-10-13T17:44:03.824Z,7.03
2022-10-13T17:46:38.241Z,7.25
2022-10-13T17:49:07.868Z,6.05
2022-10-13T17:51:37.198Z,5.95
2022-10-13T17:54:05.746Z,7.03
2022-10-13T17:56:33.811Z,6.03
2022-10-13T17:59:02.901Z,5.68
2022-10-13T18:01:32.640Z,5.22
2022-10-13T18:04:02.499Z,6.10
2022-10-13T18:06:37.699Z,4.80
2022-10-13T18:09:09.266Z,6.28
2022-10-13T18:11:38.598Z,3.60
2022-10-13T18:14:07.387Z,4.50
2022-10-13T18:16:36.734Z,4.85
2022-10-13T18:19:05.220Z,4.32
2022-10-13T18:21:33.434Z,3.92
2022-10-13T18:24:03.347Z,3.80
2022-10-13T18:26:35.804Z,5.13
2022-10-13T18:29:05.781Z,3.20
2022-10-13T18:31:35.793Z,3.58
2022-10-13T18:34:05.240Z,3.88
2022-10-13T18:36:35.400Z,3.20
2022-10-13T18:39:05.793Z,3.17
2022-10-13T18:41:36.896Z,3.70
2022-10-13T18:44:05.572Z,3.40
2022-10-13T18:46:34.552Z,2.58
2022-10-13T18:49:05.190Z,3.30
2022-10-13T18:51:36.219Z,2.22
2022-10-13T18:54:05.496Z,3.10
2022-10-13T18:56:37.155Z,2.58
2022-10-13T18:59:06.995Z,2.95
2022-10-13T19:01:36.400Z,2.70
2022-10-13T19:04:05.088Z,2.17
2022-10-13T19:06:33.591Z,2.72
2022-10-13T19:09:03.717Z,1.95
2022-10-13T19:11:34.223Z,2.90
2022-10-13T19:14:07.006Z,2.35
2022-10-13T19:16:38.763Z,2.05
2022-10-13T19:19:08.015Z,2.65
2022-10-13T19:21:36.487Z,1.80
2022-10-13T19:24:04.878Z,2.75
2022-10-13T19:26:35.809Z,1.88
2022-10-13T19:29:06.674Z,2.28
2022-10-13T19:31:39.394Z,1.70
2022-10-13T19:34:07.514Z,2.60
2022-10-13T19:36:37.505Z,1.95
2022-10-13T19:39:11.813Z,2.85
2022-10-13T19:41:41.449Z,2.03
2022-10-13T19:44:09.398Z,10.82
2022-10-13T19:46:40.368Z,7.75
2022-10-13T19:49:08.366Z,1.88
2022-10-13T19:51:36.443Z,3.88
2022-10-13T19:54:07.488Z,3.75
2022-10-13T19:56:37.245Z,3.05
2022-10-13T19:59:08.312Z,3.72
2022-10-13T20:01:39.957Z,4.13
2022-10-13T20:04:08.671Z,2.53
2022-10-13T20:06:37.309Z,1.63
2022-10-13T20:09:05.894Z,1.42
2022-10-13T20:11:33.888Z,7.30
2022-10-13T20:14:01.857Z,1.30
2022-10-13T20:16:32.185Z,1.85
2022-10-13T20:19:02.144Z,2.80
2022-10-13T20:21:30.491Z,5.97
2022-10-13T20:23:58.829Z,1.73
2022-10-13T20:26:27.821Z,0.88
2022-10-13T20:28:58.374Z,2.47
2022-10-13T20:31:28.047Z,3.65
2022-10-13T20:34:02.287Z,1.73
2022-10-13T20:36:38.307Z,1.75
2022-10-13T20:39:11.406Z,2.10
2022-10-13T20:41:40.904Z,3.83
2022-10-13T20:44:13.638Z,3.05
2022-10-13T20:46:42.441Z,2.17
2022-10-13T20:49:13.069Z,3.50
2022-10-13T20:51:41.683Z,4.30
2022-10-13T20:54:09.805Z,2.93
2022-10-13T20:56:37.857Z,5.60
2022-10-13T20:59:06.991Z,2.37
2022-10-13T21:01:35.093Z,3.97
2022-10-13T21:04:03.049Z,3.03
2022-10-13T21:06:32.903Z,3.63
2022-10-13T21:09:00.877Z,2.40
2022-10-13T21:11:28.917Z,3.33
2022-10-13T21:13:57.532Z,3.20
2022-10-13T21:16:27.449Z,3.20
2022-10-13T21:18:58.310Z,2.80
2022-10-13T21:21:29.334Z,4.50
2022-10-13T21:24:00.884Z,5.23
2022-10-13T21:26:30.485Z,1.67
2022-10-13T21:28:59.099Z,4.10
2022-10-13T21:31:28.457Z,5.37
2022-10-13T21:33:56.891Z,1.50
2022-10-13T21:36:26.298Z,2.17
2022-10-13T21:38:56.495Z,4.40
2022-10-13T21:41:26.541Z,2.00
2022-10-13T21:43:55.445Z,6.80
2022-10-13T21:46:25.329Z,2.27
2022-10-13T21:48:57.715Z,2.47
2022-10-13T21:51:29.966Z,1.67
2022-10-13T21:54:02.298Z,0.90
2022-10-13T21:56:35.006Z,4.50
2022-10-13T21:59:04.443Z,1.37
2022-10-13T22:01:32.904Z,4.30
2022-10-13T22:04:02.883Z,3.03
2022-10-13T22:06:34.667Z,4.07
2022-10-13T22:09:07.359Z,2.40
2022-10-13T22:11:56.356Z,1.47
2022-10-13T22:14:41.488Z,1.73
2022-10-13T22:17:12.423Z,3.73
2022-10-13T22:19:40.442Z,2.73
2022-10-13T22:22:08.396Z,2.43
2022-10-13T22:24:36.384Z,6.93
2022-10-13T22:27:05.725Z,2.33
2022-10-13T22:29:33.687Z,3.17
2022-10-13T22:32:01.727Z,6.00
2022-10-13T22:34:29.696Z,1.43
2022-10-13T22:36:57.877Z,4.03
2022-10-13T22:39:25.827Z,5.10
2022-10-13T22:41:53.940Z,2.40
2022-10-13T22:44:23.288Z,1.80
2022-10-13T22:46:51.699Z,4.17
2022-10-13T22:49:19.631Z,1.77
2022-10-13T22:51:48.032Z,2.63
2022-10-13T22:54:16.094Z,2.93
2022-10-13T22:56:45.079Z,3.80
2022-10-13T22:59:14.003Z,2.30
2022-10-13T23:01:43.342Z,1.50
2022-10-13T23:04:11.359Z,4.03
2022-10-13T23:06:39.516Z,1.70
2022-10-13T23:09:09.217Z,2.23
2022-10-13T23:11:37.578Z,1.58
2022-10-13T23:14:05.676Z,2.03
2022-10-13T23:16:33.765Z,2.67
2022-10-13T23:19:03.617Z,2.00
2022-10-13T23:21:31.968Z,3.63
2022-10-13T23:24:02.086Z,4.03
2022-10-13T23:26:31.116Z,4.53
2022-10-13T23:28:59.673Z,1.90
2022-10-13T23:31:29.169Z,1.85
2022-10-13T23:33:57.183Z,2.25
2022-10-13T23:36:28.770Z,2.00
2022-10-13T23:38:58.251Z,3.13
2022-10-13T23:41:26.943Z,2.63
2022-10-13T23:43:55.148Z,1.83
2022-10-13T23:46:23.110Z,1.83
2022-10-13T23:48:51.109Z,1.05
2022-10-13T23:51:21.480Z,2.75
2022-10-13T23:53:50.981Z,2.10
2022-10-13T23:56:19.362Z,2.67
2022-10-13T23:58:47.968Z,1.67
